createdAt,value
2023-05-19T00:01:48.206Z,45.48
2023-05-19T00:04:16.903Z,46.71
2023-05-19T00:06:51.025Z,46.35
2023-05-19T00:09:19.133Z,46.55
2023-05-19T00:11:46.930Z,45.27
2023-05-19T00:14:14.987Z,45.75
2023-05-19T00:16:43.101Z,45.38
2023-05-19T00:19:10.899Z,45.65
2023-05-19T00:21:39.040Z,45.11
2023-05-19T00:24:07.681Z,44.63
2023-05-19T00:26:35.587Z,45.36
2023-05-19T00:29:06.218Z,44.92
2023-05-19T00:31:34.361Z,45.63
2023-05-19T00:34:02.318Z,45.45
2023-05-19T00:36:30.078Z,46.14
2023-05-19T00:38:57.738Z,46.05
2023-05-19T00:41:26.123Z,45.07
2023-05-19T00:43:54.064Z,45.48
2023-05-19T00:46:22.976Z,45.79
2023-05-19T00:48:50.908Z,45.28
2023-05-19T00:51:18.992Z,45.97
2023-05-19T00:53:49.400Z,46.35
2023-05-19T00:56:18.328Z,45.93
2023-05-19T00:58:46.788Z,45.64
2023-05-19T01:01:17.332Z,45.74
2023-05-19T01:03:47.133Z,45.77
2023-05-19T01:06:15.279Z,45.42
2023-05-19T01:08:43.043Z,45.85
2023-05-19T01:11:10.953Z,45.92
2023-05-19T01:13:41.806Z,46.61
2023-05-19T01:16:37.487Z,46.75
2023-05-19T01:19:26.399Z,46.81
2023-05-19T01:22:42.940Z,46.60
2023-05-19T01:26:11.750Z,45.36
2023-05-19T01:29:11.239Z,46.63
2023-05-19T01:31:42.112Z,45.77
2023-05-19T01:34:12.162Z,44.98
2023-05-19T01:36:44.651Z,44.91
2023-05-19T01:39:14.208Z,44.66
2023-05-19T01:41:45.563Z,45.09
2023-05-19T01:44:13.710Z,45.32
2023-05-19T01:46:42.301Z,45.04
2023-05-19T01:49:10.968Z,46.09
2023-05-19T01:51:38.701Z,45.62
2023-05-19T01:54:06.505Z,44.08
2023-05-19T01:57:03.588Z,45.05
2023-05-19T01:59:50.172Z,45.23
2023-05-19T02:02:49.027Z,43.79
2023-05-19T02:05:44.712Z,43.72
2023-05-19T02:08:23.217Z,42.93
2023-05-19T02:11:00.680Z,44.70
2023-05-19T02:13:36.695Z,44.28
2023-05-19T02:16:06.178Z,44.01
2023-05-19T02:18:35.362Z,43.97
2023-05-19T02:21:03.385Z,44.25
2023-05-19T02:23:31.254Z,44.29
2023-05-19T02:25:58.906Z,46.32
2023-05-19T02:28:28.477Z,43.61
2023-05-19T02:30:56.189Z,43.30
2023-05-19T02:33:26.022Z,43.42
2023-05-19T02:35:53.840Z,43.28
2023-05-19T02:38:21.444Z,42.80
2023-05-19T02:40:49.129Z,43.85
2023-05-19T02:43:16.787Z,42.86
2023-05-19T02:45:44.548Z,43.21
2023-05-19T02:48:12.235Z,43.32
2023-05-19T02:50:39.982Z,42.46
2023-05-19T02:53:07.807Z,43.19
2023-05-19T02:55:35.545Z,44.06
2023-05-19T02:58:03.178Z,42.90
2023-05-19T03:00:31.202Z,42.75
2023-05-19T03:03:02.689Z,42.67
2023-05-19T03:05:31.168Z,43.69
2023-05-19T03:07:58.844Z,43.62
2023-05-19T03:10:26.566Z,43.38
2023-05-19T03:12:54.363Z,43.64
2023-05-19T03:15:23.394Z,44.08
2023-05-19T03:17:51.950Z,44.16
2023-05-19T03:20:19.764Z,44.56
2023-05-19T03:22:47.409Z,43.95
2023-05-19T03:25:15.164Z,43.96
2023-05-19T03:27:43.198Z,45.01
2023-05-19T03:30:11.895Z,46.01
2023-05-19T03:32:52.206Z,44.16
2023-05-19T03:35:20.861Z,44.83
2023-05-19T03:37:48.461Z,43.94
2023-05-19T03:40:16.231Z,44.33
2023-05-19T03:42:45.176Z,45.33
2023-05-19T03:45:12.873Z,43.79
2023-05-19T03:47:41.354Z,44.46
2023-05-19T03:50:44.526Z,45.00
2023-05-19T03:53:23.892Z,45.25
2023-05-19T03:55:51.826Z,45.15
2023-05-19T03:58:19.505Z,46.22
2023-05-19T04:00:47.216Z,45.33
2023-05-19T04:03:15.399Z,45.53
2023-05-19T04:05:43.323Z,45.73
2023-05-19T04:08:11.152Z,44.43
2023-05-19T04:10:38.902Z,45.35
2023-05-19T04:13:06.626Z,45.18
2023-05-19T04:15:34.410Z,44.59
2023-05-19T04:18:02.165Z,44.82
2023-05-19T04:20:29.955Z,45.43
2023-05-19T04:22:57.729Z,44.71
2023-05-19T04:25:25.621Z,43.58
2023-05-19T04:27:53.784Z,43.65
2023-05-19T04:30:30.344Z,43.03
2023-05-19T04:32:59.364Z,42.53
2023-05-19T04:35:27.567Z,42.46
2023-05-19T04:37:55.689Z,41.13
2023-05-19T04:40:31.245Z,41.32
2023-05-19T04:43:01.956Z,41.73
2023-05-19T04:45:30.295Z,41.13
2023-05-19T04:48:00.892Z,40.16
2023-05-19T04:50:29.685Z,40.26
2023-05-19T04:52:59.294Z,41.47
2023-05-19T04:55:27.826Z,41.09
2023-05-19T04:57:55.636Z,40.14
2023-05-19T05:00:23.685Z,39.54
2023-05-19T05:03:00.597Z,39.32
2023-05-19T05:05:31.589Z,38.84
2023-05-19T05:07:59.506Z,39.71
2023-05-19T05:10:29.978Z,40.99
2023-05-19T05:12:58.124Z,39.70
2023-05-19T05:15:28.744Z,40.43
2023-05-19T05:17:58.063Z,40.13
2023-05-19T05:20:26.712Z,40.22
2023-05-19T05:22:54.949Z,38.19
2023-05-19T05:25:24.102Z,37.68
2023-05-19T05:27:52.476Z,36.73
2023-05-19T05:30:20.283Z,36.83
2023-05-19T05:32:48.263Z,36.08
2023-05-19T05:35:29.415Z,36.09
2023-05-19T05:37:57.280Z,36.33
2023-05-19T05:40:25.717Z,36.12
2023-05-19T05:42:55.731Z,35.27
2023-05-19T05:45:26.203Z,35.00
2023-05-19T05:47:55.585Z,35.65
2023-05-19T05:50:24.551Z,35.98
2023-05-19T05:52:53.850Z,35.85
2023-05-19T05:55:22.767Z,36.31
2023-05-19T05:57:50.584Z,36.57
2023-05-19T06:00:19.371Z,35.33
2023-05-19T06:02:52.521Z,34.68
2023-05-19T06:05:21.137Z,35.29
2023-05-19T06:07:49.833Z,35.22
2023-05-19T06:10:22.802Z,38.28
2023-05-19T06:12:51.296Z,40.00
2023-05-19T06:15:19.096Z,39.73
2023-05-19T06:18:16.293Z,38.35
2023-05-19T06:20:44.398Z,37.78
2023-05-19T06:23:12.082Z,36.12
2023-05-19T06:25:39.721Z,36.55
2023-05-19T06:28:07.438Z,36.17
2023-05-19T06:30:36.680Z,35.30
2023-05-19T06:33:17.577Z,35.33
2023-05-19T06:35:45.485Z,36.35
2023-05-19T06:38:13.270Z,36.31
2023-05-19T06:40:41.059Z,37.39
2023-05-19T06:43:08.804Z,37.24
2023-05-19T06:45:54.465Z,34.75
2023-05-19T06:48:23.484Z,34.78
2023-05-19T06:50:51.690Z,34.01
2023-05-19T06:53:23.435Z,33.92
2023-05-19T06:55:59.591Z,31.93
2023-05-19T06:58:31.809Z,32.17
2023-05-19T07:01:00.809Z,30.95
2023-05-19T07:03:34.229Z,31.25
2023-05-19T07:06:02.166Z,31.26
2023-05-19T07:08:29.776Z,31.76
2023-05-19T07:11:00.483Z,31.98
2023-05-19T07:13:29.681Z,32.42
2023-05-19T07:15:58.159Z,30.90
2023-05-19T07:18:31.881Z,32.43
2023-05-19T07:21:00.154Z,32.55
2023-05-19T07:23:28.177Z,32.15
2023-05-19T07:25:56.937Z,32.52
2023-05-19T07:28:24.674Z,32.55
2023-05-19T07:30:53.070Z,33.40
2023-05-19T07:33:20.766Z,32.69
2023-05-19T07:35:48.821Z,32.47
2023-05-19T07:38:16.586Z,31.38
2023-05-19T07:40:44.480Z,30.83
2023-05-19T07:43:12.092Z,31.67
2023-05-19T07:45:40.271Z,33.59
2023-05-19T07:48:08.053Z,33.18
2023-05-19T07:50:35.796Z,33.44
2023-05-19T07:53:03.541Z,33.44
2023-05-19T07:55:31.327Z,32.34
2023-05-19T07:57:59.032Z,32.08
2023-05-19T08:00:26.933Z,31.84
2023-05-19T08:02:56.937Z,31.17
2023-05-19T08:05:26.011Z,32.16
2023-05-19T08:07:53.674Z,31.77
2023-05-19T08:10:21.461Z,31.54
2023-05-19T08:12:49.377Z,30.22
2023-05-19T08:15:17.094Z,29.38
2023-05-19T08:17:45.102Z,28.92
2023-05-19T08:20:13.114Z,29.68
2023-05-19T08:22:41.158Z,30.77
2023-05-19T08:25:09.614Z,31.59
2023-05-19T08:27:37.482Z,31.05
2023-05-19T08:30:06.161Z,34.18
2023-05-19T08:32:34.036Z,32.80
2023-05-19T08:35:01.774Z,32.85
2023-05-19T08:37:30.700Z,32.66
2023-05-19T08:39:59.816Z,34.09
2023-05-19T08:42:27.453Z,33.52
2023-05-19T08:44:55.539Z,34.51
2023-05-19T08:47:23.486Z,34.67
2023-05-19T08:49:53.412Z,34.41
2023-05-19T08:52:52.537Z,33.25
2023-05-19T08:56:04.116Z,32.19
2023-05-19T08:58:33.787Z,32.74
2023-05-19T09:01:03.297Z,33.76
2023-05-19T09:03:38.086Z,32.06
2023-05-19T09:06:08.694Z,31.64
2023-05-19T09:08:37.209Z,31.63
2023-05-19T09:11:05.156Z,32.47
2023-05-19T09:13:32.907Z,32.64
2023-05-19T09:16:00.892Z,31.34
2023-05-19T09:18:28.797Z,30.20
2023-05-19T09:21:00.226Z,28.98
2023-05-19T09:23:36.284Z,27.19
2023-05-19T09:26:07.609Z,27.47
2023-05-19T09:28:37.754Z,26.50
2023-05-19T09:31:09.093Z,26.32
2023-05-19T09:33:46.018Z,25.39
2023-05-19T09:36:14.161Z,25.06
2023-05-19T09:38:42.438Z,25.70
2023-05-19T09:41:10.869Z,27.40
2023-05-19T09:43:38.527Z,29.42
2023-05-19T09:46:09.658Z,28.52
2023-05-19T09:48:38.936Z,27.68
2023-05-19T09:51:10.257Z,27.77
2023-05-19T09:53:39.025Z,24.99
2023-05-19T09:56:09.758Z,24.85
2023-05-19T09:58:38.067Z,25.24
2023-05-19T10:01:07.536Z,24.69
2023-05-19T10:03:36.674Z,24.33
2023-05-19T10:06:05.567Z,23.25
2023-05-19T10:08:34.390Z,24.36
2023-05-19T10:11:02.465Z,22.69
2023-05-19T10:13:32.029Z,23.32
2023-05-19T10:16:00.785Z,23.51
2023-05-19T10:18:29.707Z,23.55
2023-05-19T10:20:58.921Z,22.48
2023-05-19T10:23:27.028Z,21.99
2023-05-19T10:25:59.168Z,21.33
2023-05-19T10:28:36.887Z,21.25
2023-05-19T10:31:09.717Z,21.00
2023-05-19T10:34:19.132Z,21.13
2023-05-19T10:37:01.770Z,20.86
2023-05-19T10:39:37.968Z,22.00
2023-05-19T10:42:15.875Z,24.66
2023-05-19T10:45:10.337Z,24.50
2023-05-19T10:47:40.396Z,23.78
2023-05-19T10:50:08.637Z,22.68
2023-05-19T10:52:38.723Z,22.46
2023-05-19T10:55:17.592Z,22.76
2023-05-19T10:57:56.811Z,22.94
2023-05-19T11:00:32.008Z,22.42
2023-05-19T11:03:17.673Z,21.47
2023-05-19T11:05:46.422Z,20.79
2023-05-19T11:08:14.175Z,21.62
2023-05-19T11:10:46.151Z,20.76
2023-05-19T11:13:23.497Z,20.46
2023-05-19T11:15:52.152Z,20.57
2023-05-19T11:18:21.345Z,21.58
2023-05-19T11:20:58.314Z,21.02
2023-05-19T11:23:26.285Z,20.16
2023-05-19T11:25:54.390Z,20.65
2023-05-19T11:28:28.130Z,20.88
2023-05-19T11:30:59.305Z,20.58
2023-05-19T11:33:27.600Z,20.02
2023-05-19T11:36:00.340Z,20.21
2023-05-19T11:38:30.195Z,19.99
2023-05-19T11:40:58.240Z,19.37
2023-05-19T11:43:26.433Z,18.52
2023-05-19T11:45:55.972Z,19.38
2023-05-19T11:48:26.260Z,20.35
2023-05-19T11:50:54.272Z,21.77
2023-05-19T11:53:22.952Z,21.33
2023-05-19T11:55:51.104Z,20.71
2023-05-19T11:58:26.837Z,20.23
2023-05-19T12:00:54.659Z,20.08
2023-05-19T12:03:26.613Z,20.18
2023-05-19T12:05:54.543Z,21.49
2023-05-19T12:08:22.939Z,20.40
2023-05-19T12:10:52.304Z,20.19
2023-05-19T12:13:21.025Z,20.36
2023-05-19T12:15:52.274Z,21.31
2023-05-19T12:18:20.860Z,21.82
2023-05-19T12:20:48.796Z,21.90
2023-05-19T12:23:16.808Z,21.32
2023-05-19T12:25:44.756Z,20.13
2023-05-19T12:28:12.543Z,20.46
2023-05-19T12:30:41.386Z,21.69
2023-05-19T12:33:09.878Z,21.35
2023-05-19T12:35:37.783Z,19.59
2023-05-19T12:38:06.911Z,19.05
2023-05-19T12:40:36.289Z,19.82
2023-05-19T12:43:05.545Z,21.19
2023-05-19T12:45:37.103Z,22.08
2023-05-19T12:48:11.066Z,21.29
2023-05-19T12:50:38.968Z,20.35
2023-05-19T12:53:11.864Z,19.93
2023-05-19T12:55:44.925Z,19.16
2023-05-19T12:58:13.193Z,18.97
2023-05-19T13:00:43.510Z,18.86
2023-05-19T13:03:16.938Z,19.45
2023-05-19T13:05:47.373Z,18.65
2023-05-19T13:08:21.867Z,19.01
2023-05-19T13:10:49.750Z,19.96
2023-05-19T13:13:18.343Z,18.88
2023-05-19T13:15:50.758Z,19.43
2023-05-19T13:18:18.866Z,19.96
2023-05-19T13:20:47.375Z,20.48
2023-05-19T13:23:16.055Z,19.42
2023-05-19T13:25:43.816Z,21.23
2023-05-19T13:28:12.071Z,21.94
2023-05-19T13:30:41.441Z,22.88
2023-05-19T13:33:09.214Z,21.11
2023-05-19T13:35:38.006Z,20.49
2023-05-19T13:38:09.585Z,21.02
2023-05-19T13:40:39.639Z,22.28
2023-05-19T13:43:08.654Z,22.93
2023-05-19T13:45:36.872Z,23.76
2023-05-19T13:48:07.131Z,24.22
2023-05-19T13:50:34.995Z,23.91
2023-05-19T13:53:03.624Z,23.05
2023-05-19T13:55:31.605Z,21.82
2023-05-19T13:57:59.362Z,20.53
2023-05-19T14:00:27.174Z,21.22
2023-05-19T14:02:55.010Z,22.20
2023-05-19T14:05:23.019Z,23.44
2023-05-19T14:07:50.709Z,24.47
2023-05-19T14:10:18.358Z,24.83
2023-05-19T14:13:14.080Z,24.22
2023-05-19T14:15:37.766Z,22.12
2023-05-19T14:18:06.846Z,21.43
2023-05-19T14:20:35.298Z,21.67
2023-05-19T14:23:03.464Z,23.82
2023-05-19T14:25:31.140Z,23.65
2023-05-19T14:27:58.811Z,22.61
2023-05-19T14:30:26.530Z,22.52
2023-05-19T14:32:54.259Z,22.97
2023-05-19T14:35:22.984Z,22.10
2023-05-19T14:37:51.582Z,21.14
2023-05-19T14:40:19.431Z,20.98
2023-05-19T14:42:47.091Z,19.98
2023-05-19T14:45:15.497Z,19.27
2023-05-19T14:47:43.248Z,17.69
2023-05-19T14:50:11.405Z,17.24
2023-05-19T14:52:39.070Z,16.52
2023-05-19T14:55:07.725Z,16.71
2023-05-19T14:57:35.516Z,16.23
2023-05-19T15:00:03.726Z,17.37
2023-05-19T15:02:31.792Z,16.88
2023-05-19T15:05:00.856Z,18.52
2023-05-19T15:07:28.700Z,20.53
2023-05-19T15:09:56.499Z,20.92
2023-05-19T15:12:24.224Z,21.62
2023-05-19T15:14:51.824Z,20.88
2023-05-19T15:17:19.677Z,20.63
2023-05-19T15:19:47.406Z,21.59
2023-05-19T15:22:15.271Z,21.82
2023-05-19T15:24:43.006Z,21.88
2023-05-19T15:27:10.814Z,21.76
2023-05-19T15:29:38.423Z,22.73
2023-05-19T15:32:06.904Z,21.98
2023-05-19T15:34:34.555Z,21.65
2023-05-19T15:37:02.296Z,22.92
2023-05-19T15:39:31.344Z,21.43
2023-05-19T15:41:59.408Z,21.50
2023-05-19T15:44:28.943Z,23.11
2023-05-19T15:46:57.013Z,22.63
2023-05-19T15:49:25.257Z,21.79
2023-05-19T15:51:52.902Z,21.22
2023-05-19T15:54:20.535Z,21.14
2023-05-19T15:56:48.821Z,20.61
2023-05-19T15:59:16.470Z,20.26
2023-05-19T16:01:44.403Z,20.94
2023-05-19T16:04:12.289Z,20.49
2023-05-19T16:06:40.004Z,21.85
2023-05-19T16:09:07.665Z,21.18
2023-05-19T16:11:35.455Z,21.91
2023-05-19T16:14:03.210Z,22.61
2023-05-19T16:16:31.114Z,22.92
2023-05-19T16:18:58.783Z,25.08
2023-05-19T16:21:26.527Z,25.03
2023-05-19T16:23:54.273Z,23.39
2023-05-19T16:26:22.095Z,22.60
2023-05-19T16:28:49.791Z,22.80
2023-05-19T16:31:17.482Z,22.49
2023-05-19T16:33:46.153Z,23.35
2023-05-19T16:36:13.882Z,22.63
2023-05-19T16:38:41.510Z,22.62
2023-05-19T16:41:12.003Z,22.17
2023-05-19T16:43:39.801Z,22.63
2023-05-19T16:46:09.843Z,21.94
2023-05-19T16:48:37.975Z,23.07
2023-05-19T16:51:06.384Z,23.92
2023-05-19T16:53:34.277Z,23.37
2023-05-19T16:56:02.056Z,24.22
2023-05-19T16:58:31.056Z,24.21
2023-05-19T17:00:58.939Z,24.13
2023-05-19T17:03:26.718Z,24.62
2023-05-19T17:05:54.446Z,23.86
2023-05-19T17:08:22.125Z,23.83
2023-05-19T17:10:49.814Z,23.78
2023-05-19T17:13:17.640Z,24.58
2023-05-19T17:15:45.517Z,25.06
2023-05-19T17:18:13.308Z,26.19
2023-05-19T17:20:41.604Z,25.74
2023-05-19T17:23:09.392Z,27.58
2023-05-19T17:25:36.999Z,27.48
2023-05-19T17:28:04.710Z,26.16
2023-05-19T17:30:33.013Z,25.44
2023-05-19T17:33:00.915Z,25.17
2023-05-19T17:35:28.747Z,25.73
2023-05-19T17:37:57.861Z,27.00
2023-05-19T17:40:25.904Z,26.39
2023-05-19T17:42:53.655Z,26.42
2023-05-19T17:45:21.361Z,27.21
2023-05-19T17:47:49.070Z,27.10
2023-05-19T17:50:17.125Z,28.78
2023-05-19T17:52:45.342Z,27.96
2023-05-19T17:55:14.100Z,29.01
2023-05-19T17:57:45.068Z,28.84
2023-05-19T18:00:13.511Z,28.21
2023-05-19T18:02:41.609Z,28.66
2023-05-19T18:05:10.416Z,28.89
2023-05-19T18:07:41.202Z,28.06
2023-05-19T18:10:10.039Z,28.19
2023-05-19T18:12:37.783Z,27.41
2023-05-19T18:15:06.617Z,27.63
2023-05-19T18:17:34.325Z,27.97
2023-05-19T18:20:02.386Z,28.33
2023-05-19T18:22:30.294Z,28.43
2023-05-19T18:24:58.004Z,28.49
2023-05-19T18:27:27.713Z,27.89
2023-05-19T18:29:55.602Z,28.21
2023-05-19T18:32:23.457Z,28.24
2023-05-19T18:34:51.200Z,28.84
2023-05-19T18:37:18.920Z,29.40
2023-05-19T18:39:46.930Z,29.71
2023-05-19T18:42:14.575Z,30.47
2023-05-19T18:44:46.710Z,30.56
2023-05-19T18:47:14.784Z,30.26
2023-05-19T18:49:42.762Z,31.61
2023-05-19T18:52:11.238Z,31.31
2023-05-19T18:54:40.617Z,31.13
2023-05-19T18:57:09.168Z,30.99
2023-05-19T18:59:36.907Z,30.70
2023-05-19T19:02:04.894Z,30.57
2023-05-19T19:04:33.989Z,30.45
2023-05-19T19:07:01.749Z,30.95
2023-05-19T19:09:29.566Z,32.01
2023-05-19T19:11:57.592Z,32.63
2023-05-19T19:14:26.100Z,31.69
2023-05-19T19:16:54.763Z,32.07
2023-05-19T19:19:23.797Z,32.29
2023-05-19T19:21:51.863Z,32.01
2023-05-19T19:24:19.495Z,33.44
2023-05-19T19:26:47.175Z,33.34
2023-05-19T19:29:16.673Z,33.63
2023-05-19T19:31:44.718Z,34.44
2023-05-19T19:34:13.507Z,34.22
2023-05-19T19:36:41.364Z,34.88
2023-05-19T19:39:09.448Z,34.90
2023-05-19T19:41:37.507Z,34.93
2023-05-19T19:44:05.590Z,35.54
2023-05-19T19:46:33.575Z,34.88
2023-05-19T19:49:01.467Z,35.13
2023-05-19T19:51:29.282Z,34.00
2023-05-19T19:53:59.041Z,33.50
2023-05-19T19:56:27.652Z,34.32
2023-05-19T19:58:59.223Z,34.25
2023-05-19T20:01:28.266Z,34.94
2023-05-19T20:03:57.416Z,35.55
2023-05-19T20:06:25.385Z,35.96
2023-05-19T20:08:53.033Z,35.95
2023-05-19T20:11:22.886Z,36.43
2023-05-19T20:13:50.721Z,36.18
2023-05-19T20:16:18.853Z,36.13
2023-05-19T20:18:46.678Z,35.74
2023-05-19T20:21:14.384Z,36.59
2023-05-19T20:23:42.181Z,36.05
2023-05-19T20:26:12.731Z,35.71
2023-05-19T20:28:41.559Z,36.67
2023-05-19T20:31:09.350Z,36.69
2023-05-19T20:33:37.092Z,36.20
2023-05-19T20:36:06.256Z,36.08
2023-05-19T20:38:34.056Z,37.52
2023-05-19T20:41:01.946Z,37.07
2023-05-19T20:43:30.067Z,35.57
2023-05-19T20:45:57.842Z,36.47
2023-05-19T20:48:29.007Z,36.93
2023-05-19T20:50:57.287Z,35.90
2023-05-19T20:53:25.007Z,35.04
2023-05-19T20:55:57.437Z,35.41
2023-05-19T20:58:30.061Z,34.92
2023-05-19T21:00:58.220Z,36.02
2023-05-19T21:03:27.008Z,34.65
2023-05-19T21:05:58.166Z,35.92
2023-05-19T21:08:26.747Z,35.71
2023-05-19T21:10:54.449Z,36.00
2023-05-19T21:13:22.197Z,36.09
2023-05-19T21:15:49.856Z,35.90
2023-05-19T21:18:17.734Z,35.78
2023-05-19T21:20:48.203Z,36.22
2023-05-19T21:23:15.902Z,35.52
2023-05-19T21:25:45.736Z,36.02
2023-05-19T21:28:13.412Z,36.69
2023-05-19T21:30:41.526Z,37.96
2023-05-19T21:33:09.302Z,37.66
2023-05-19T21:35:37.865Z,36.92
2023-05-19T21:38:15.646Z,36.45
2023-05-19T21:40:51.232Z,36.58
2023-05-19T21:43:19.610Z,37.32
2023-05-19T21:45:47.378Z,38.62
2023-05-19T21:48:15.150Z,37.89
2023-05-19T21:50:45.762Z,37.18
2023-05-19T21:53:13.676Z,37.98
2023-05-19T21:55:41.434Z,38.23
2023-05-19T21:58:09.543Z,38.36
2023-05-19T22:00:37.234Z,38.88
2023-05-19T22:03:05.467Z,38.81
2023-05-19T22:05:35.335Z,38.80
2023-05-19T22:08:03.657Z,39.63
2023-05-19T22:10:31.868Z,40.13
2023-05-19T22:12:59.977Z,39.75
2023-05-19T22:15:27.649Z,40.31
2023-05-19T22:17:55.454Z,40.02
2023-05-19T22:20:23.113Z,40.48
2023-05-19T22:22:51.054Z,41.00
2023-05-19T22:25:18.932Z,41.31
2023-05-19T22:27:46.572Z,42.06
2023-05-19T22:30:14.471Z,41.46
2023-05-19T22:32:42.182Z,41.13
2023-05-19T22:35:10.861Z,42.11
2023-05-19T22:37:41.551Z,42.54
2023-05-19T22:40:09.774Z,42.07
2023-05-19T22:42:37.425Z,43.29
2023-05-19T22:45:06.429Z,43.51
2023-05-19T22:47:35.554Z,42.88
2023-05-19T22:50:03.413Z,44.33
2023-05-19T22:52:31.269Z,43.79
2023-05-19T22:54:58.917Z,43.84
2023-05-19T22:57:26.568Z,43.85
2023-05-19T22:59:54.896Z,44.93
2023-05-19T23:02:22.605Z,44.99
2023-05-19T23:04:50.482Z,44.29
2023-05-19T23:07:18.165Z,44.57
2023-05-19T23:09:45.820Z,45.54
2023-05-19T23:12:13.760Z,44.85
2023-05-19T23:14:41.576Z,45.41
2023-05-19T23:17:09.413Z,46.16
2023-05-19T23:19:37.410Z,45.26
2023-05-19T23:22:05.379Z,45.50
2023-05-19T23:24:33.237Z,44.30
2023-05-19T23:27:01.107Z,45.91
2023-05-19T23:29:29.114Z,45.35
2023-05-19T23:31:56.960Z,44.60
2023-05-19T23:34:24.698Z,44.86
2023-05-19T23:36:52.406Z,45.72
2023-05-19T23:39:20.181Z,45.69
2023-05-19T23:41:47.837Z,45.73
2023-05-19T23:44:15.734Z,45.12
2023-05-19T23:46:43.422Z,47.35
2023-05-19T23:49:14.813Z,47.40
2023-05-19T23:51:42.502Z,45.86
2023-05-19T23:54:10.334Z,46.34
2023-05-19T23:56:38.014Z,46.77
2023-05-19T23:59:05.733Z,47.14
